sensor_id;sensor_type;location;lat;lon;timestamp;P1;durP1;ratioP1;P2;durP2;ratioP2
29452;SDS011;16424;50.956;5.320;2023-09-19T00:00:45;7.10;;;1.52;;
29452;SDS011;16424;50.956;5.320;2023-09-19T00:03:12;8.68;;;1.80;;
29452;SDS011;16424;50.956;5.320;2023-09-19T00:05:38;13.63;;;2.63;;
29452;SDS011;16424;50.956;5.320;2023-09-19T00:08:05;11.75;;;1.90;;
29452;SDS011;16424;50.956;5.320;2023-09-19T00:10:31;14.27;;;2.40;;
29452;SDS011;16424;50.956;5.320;2023-09-19T00:13:00;11.75;;;2.78;;
29452;SDS011;16424;50.956;5.320;2023-09-19T00:15:30;16.98;;;2.33;;
29452;SDS011;16424;50.956;5.320;2023-09-19T00:18:02;13.98;;;2.25;;
29452;SDS011;16424;50.956;5.320;2023-09-19T00:20:30;12.00;;;3.25;;
29452;SDS011;16424;50.956;5.320;2023-09-19T00:22:56;14.98;;;2.28;;
29452;SDS011;16424;50.956;5.320;2023-09-19T00:25:24;10.13;;;1.42;;
29452;SDS011;16424;50.956;5.320;2023-09-19T00:27:51;8.77;;;1.88;;
29452;SDS011;16424;50.956;5.320;2023-09-19T00:30:17;9.48;;;2.60;;
29452;SDS011;16424;50.956;5.320;2023-09-19T00:32:49;9.25;;;2.35;;
29452;SDS011;16424;50.956;5.320;2023-09-19T00:35:19;13.40;;;2.60;;
29452;SDS011;16424;50.956;5.320;2023-09-19T00:37:46;9.95;;;2.40;;
29452;SDS011;16424;50.956;5.320;2023-09-19T00:40:12;11.57;;;2.08;;
29452;SDS011;16424;50.956;5.320;2023-09-19T00:42:47;17.70;;;3.30;;
29452;SDS011;16424;50.956;5.320;2023-09-19T00:45:15;12.10;;;2.95;;
29452;SDS011;16424;50.956;5.320;2023-09-19T00:47:43;12.70;;;1.83;;
29452;SDS011;16424;50.956;5.320;2023-09-19T00:50:11;13.40;;;1.77;;
29452;SDS011;16424;50.956;5.320;2023-09-19T00:52:39;6.85;;;1.95;;
29452;SDS011;16424;50.956;5.320;2023-09-19T00:55:07;15.23;;;2.88;;
29452;SDS011;16424;50.956;5.320;2023-09-19T00:57:34;9.20;;;1.77;;
29452;SDS011;16424;50.956;5.320;2023-09-19T01:00:03;15.02;;;1.60;;
29452;SDS011;16424;50.956;5.320;2023-09-19T01:02:34;11.43;;;1.90;;
29452;SDS011;16424;50.956;5.320;2023-09-19T01:05:00;11.25;;;2.05;;
29452;SDS011;16424;50.956;5.320;2023-09-19T01:07:27;10.55;;;2.50;;
29452;SDS011;16424;50.956;5.320;2023-09-19T01:09:55;11.70;;;2.28;;
29452;SDS011;16424;50.956;5.320;2023-09-19T01:20:45;11.32;;;2.35;;
29452;SDS011;16424;50.956;5.320;2023-09-19T01:29:45;9.60;;;1.85;;
29452;SDS011;16424;50.956;5.320;2023-09-19T01:32:13;9.00;;;1.70;;
29452;SDS011;16424;50.956;5.320;2023-09-19T01:34:52;20.08;;;2.47;;
29452;SDS011;16424;50.956;5.320;2023-09-19T01:37:21;7.95;;;1.60;;
29452;SDS011;16424;50.956;5.320;2023-09-19T01:40:12;13.98;;;2.10;;
29452;SDS011;16424;50.956;5.320;2023-09-19T01:48:19;11.02;;;2.03;;
29452;SDS011;16424;50.956;5.320;2023-09-19T01:51:02;13.32;;;2.20;;
29452;SDS011;16424;50.956;5.320;2023-09-19T01:53:35;11.82;;;1.85;;
29452;SDS011;16424;50.956;5.320;2023-09-19T01:56:31;6.88;;;2.47;;
29452;SDS011;16424;50.956;5.320;2023-09-19T01:59:16;11.73;;;2.10;;
29452;SDS011;16424;50.956;5.320;2023-09-19T02:01:46;10.68;;;2.10;;
29452;SDS011;16424;50.956;5.320;2023-09-19T02:04:14;11.30;;;2.25;;
29452;SDS011;16424;50.956;5.320;2023-09-19T02:06:40;11.35;;;2.13;;
29452;SDS011;16424;50.956;5.320;2023-09-19T02:09:07;9.35;;;1.67;;
29452;SDS011;16424;50.956;5.320;2023-09-19T02:11:33;9.95;;;2.50;;
29452;SDS011;16424;50.956;5.320;2023-09-19T02:14:00;9.55;;;1.60;;
29452;SDS011;16424;50.956;5.320;2023-09-19T02:16:26;11.40;;;2.17;;
29452;SDS011;16424;50.956;5.320;2023-09-19T02:18:53;10.00;;;1.73;;
29452;SDS011;16424;50.956;5.320;2023-09-19T02:21:19;15.35;;;2.50;;
29452;SDS011;16424;50.956;5.320;2023-09-19T02:23:46;14.23;;;3.10;;
29452;SDS011;16424;50.956;5.320;2023-09-19T02:26:12;7.72;;;1.85;;
29452;SDS011;16424;50.956;5.320;2023-09-19T02:28:39;12.60;;;2.33;;
29452;SDS011;16424;50.956;5.320;2023-09-19T02:31:04;16.10;;;3.47;;
29452;SDS011;16424;50.956;5.320;2023-09-19T02:33:30;18.52;;;3.40;;
29452;SDS011;16424;50.956;5.320;2023-09-19T02:36:00;9.52;;;1.65;;
29452;SDS011;16424;50.956;5.320;2023-09-19T02:38:28;12.32;;;2.70;;
29452;SDS011;16424;50.956;5.320;2023-09-19T02:40:54;9.00;;;2.47;;
29452;SDS011;16424;50.956;5.320;2023-09-19T02:43:21;9.68;;;1.73;;
29452;SDS011;16424;50.956;5.320;2023-09-19T02:45:47;14.82;;;2.00;;
29452;SDS011;16424;50.956;5.320;2023-09-19T02:48:15;11.35;;;1.80;;
29452;SDS011;16424;50.956;5.320;2023-09-19T02:50:41;12.57;;;2.28;;
29452;SDS011;16424;50.956;5.320;2023-09-19T02:53:07;14.10;;;2.33;;
29452;SDS011;16424;50.956;5.320;2023-09-19T02:55:33;11.50;;;2.47;;
29452;SDS011;16424;50.956;5.320;2023-09-19T02:57:59;14.27;;;3.42;;
29452;SDS011;16424;50.956;5.320;2023-09-19T03:00:26;16.90;;;2.80;;
29452;SDS011;16424;50.956;5.320;2023-09-19T03:02:55;13.00;;;2.63;;
29452;SDS011;16424;50.956;5.320;2023-09-19T03:05:22;12.40;;;2.22;;
29452;SDS011;16424;50.956;5.320;2023-09-19T03:07:51;11.52;;;2.53;;
29452;SDS011;16424;50.956;5.320;2023-09-19T03:10:18;16.27;;;3.15;;
29452;SDS011;16424;50.956;5.320;2023-09-19T03:12:44;12.85;;;2.08;;
29452;SDS011;16424;50.956;5.320;2023-09-19T03:15:10;16.40;;;2.55;;
29452;SDS011;16424;50.956;5.320;2023-09-19T03:17:36;14.45;;;2.25;;
29452;SDS011;16424;50.956;5.320;2023-09-19T03:20:02;14.10;;;2.05;;
29452;SDS011;16424;50.956;5.320;2023-09-19T03:22:33;11.02;;;1.60;;
29452;SDS011;16424;50.956;5.320;2023-09-19T03:24:59;11.57;;;2.10;;
29452;SDS011;16424;50.956;5.320;2023-09-19T03:27:25;10.07;;;1.80;;
29452;SDS011;16424;50.956;5.320;2023-09-19T03:29:52;14.95;;;2.10;;
29452;SDS011;16424;50.956;5.320;2023-09-19T03:32:18;15.88;;;2.70;;
29452;SDS011;16424;50.956;5.320;2023-09-19T03:34:44;12.50;;;2.38;;
29452;SDS011;16424;50.956;5.320;2023-09-19T03:37:10;12.35;;;2.13;;
29452;SDS011;16424;50.956;5.320;2023-09-19T03:39:36;10.27;;;2.03;;
29452;SDS011;16424;50.956;5.320;2023-09-19T03:42:02;10.50;;;2.08;;
29452;SDS011;16424;50.956;5.320;2023-09-19T03:44:32;13.07;;;2.58;;
29452;SDS011;16424;50.956;5.320;2023-09-19T03:46:58;13.60;;;2.97;;
29452;SDS011;16424;50.956;5.320;2023-09-19T03:49:23;9.45;;;1.40;;
29452;SDS011;16424;50.956;5.320;2023-09-19T03:51:49;10.23;;;2.78;;
29452;SDS011;16424;50.956;5.320;2023-09-19T03:54:15;10.50;;;2.40;;
29452;SDS011;16424;50.956;5.320;2023-09-19T03:56:42;13.82;;;1.85;;
29452;SDS011;16424;50.956;5.320;2023-09-19T03:59:08;12.30;;;2.47;;
29452;SDS011;16424;50.956;5.320;2023-09-19T04:01:34;15.80;;;2.50;;
29452;SDS011;16424;50.956;5.320;2023-09-19T04:04:00;14.02;;;3.30;;
29452;SDS011;16424;50.956;5.320;2023-09-19T04:06:33;10.35;;;1.83;;
29452;SDS011;16424;50.956;5.320;2023-09-19T04:09:00;10.65;;;1.80;;
29452;SDS011;16424;50.956;5.320;2023-09-19T04:11:27;8.43;;;2.72;;
29452;SDS011;16424;50.956;5.320;2023-09-19T04:13:52;9.90;;;1.88;;
29452;SDS011;16424;50.956;5.320;2023-09-19T04:16:18;13.10;;;2.92;;
29452;SDS011;16424;50.956;5.320;2023-09-19T04:18:44;15.20;;;2.72;;
29452;SDS011;16424;50.956;5.320;2023-09-19T04:21:10;8.23;;;2.00;;
29452;SDS011;16424;50.956;5.320;2023-09-19T04:23:36;9.70;;;1.73;;
29452;SDS011;16424;50.956;5.320;2023-09-19T04:26:01;5.47;;;1.25;;
29452;SDS011;16424;50.956;5.320;2023-09-19T04:28:29;10.75;;;2.35;;
29452;SDS011;16424;50.956;5.320;2023-09-19T04:30:56;17.50;;;2.85;;
29452;SDS011;16424;50.956;5.320;2023-09-19T04:33:22;6.05;;;2.10;;
29452;SDS011;16424;50.956;5.320;2023-09-19T04:35:51;6.68;;;1.58;;
29452;SDS011;16424;50.956;5.320;2023-09-19T04:38:17;11.23;;;2.28;;
29452;SDS011;16424;50.956;5.320;2023-09-19T04:40:44;13.60;;;2.20;;
29452;SDS011;16424;50.956;5.320;2023-09-19T04:43:10;9.57;;;1.70;;
29452;SDS011;16424;50.956;5.320;2023-09-19T04:45:36;12.73;;;2.58;;
29452;SDS011;16424;50.956;5.320;2023-09-19T04:48:04;13.98;;;2.72;;
29452;SDS011;16424;50.956;5.320;2023-09-19T04:50:31;12.95;;;2.58;;
29452;SDS011;16424;50.956;5.320;2023-09-19T04:52:59;9.90;;;1.98;;
29452;SDS011;16424;50.956;5.320;2023-09-19T04:55:26;12.15;;;2.40;;
29452;SDS011;16424;50.956;5.320;2023-09-19T04:57:52;13.35;;;1.83;;
29452;SDS011;16424;50.956;5.320;2023-09-19T05:00:22;10.25;;;1.95;;
29452;SDS011;16424;50.956;5.320;2023-09-19T05:02:55;10.40;;;3.45;;
29452;SDS011;16424;50.956;5.320;2023-09-19T05:05:21;9.90;;;2.83;;
29452;SDS011;16424;50.956;5.320;2023-09-19T05:07:48;13.10;;;2.35;;
29452;SDS011;16424;50.956;5.320;2023-09-19T05:10:14;10.38;;;2.83;;
29452;SDS011;16424;50.956;5.320;2023-09-19T05:12:43;16.05;;;3.85;;
29452;SDS011;16424;50.956;5.320;2023-09-19T05:15:10;11.23;;;2.05;;
29452;SDS011;16424;50.956;5.320;2023-09-19T05:17:37;12.80;;;1.92;;
29452;SDS011;16424;50.956;5.320;2023-09-19T05:20:04;11.32;;;2.40;;
29452;SDS011;16424;50.956;5.320;2023-09-19T05:22:40;9.75;;;2.75;;
29452;SDS011;16424;50.956;5.320;2023-09-19T05:25:07;13.80;;;1.88;;
29452;SDS011;16424;50.956;5.320;2023-09-19T05:27:34;10.57;;;2.20;;
29452;SDS011;16424;50.956;5.320;2023-09-19T05:29:59;11.15;;;2.28;;
29452;SDS011;16424;50.956;5.320;2023-09-19T05:32:25;14.10;;;2.40;;
29452;SDS011;16424;50.956;5.320;2023-09-19T05:34:51;11.73;;;1.88;;
29452;SDS011;16424;50.956;5.320;2023-09-19T05:37:21;10.32;;;2.35;;
29452;SDS011;16424;50.956;5.320;2023-09-19T05:39:48;14.05;;;2.22;;
29452;SDS011;16424;50.956;5.320;2023-09-19T05:42:14;17.88;;;2.50;;
29452;SDS011;16424;50.956;5.320;2023-09-19T05:44:40;12.20;;;2.72;;
29452;SDS011;16424;50.956;5.320;2023-09-19T05:47:05;12.40;;;2.85;;
29452;SDS011;16424;50.956;5.320;2023-09-19T05:49:33;11.30;;;1.90;;
29452;SDS011;16424;50.956;5.320;2023-09-19T05:52:05;14.75;;;1.98;;
29452;SDS011;16424;50.956;5.320;2023-09-19T05:54:31;13.43;;;2.17;;
29452;SDS011;16424;50.956;5.320;2023-09-19T05:56:59;13.20;;;2.13;;
29452;SDS011;16424;50.956;5.320;2023-09-19T05:59:25;13.80;;;2.53;;
29452;SDS011;16424;50.956;5.320;2023-09-19T06:01:51;16.42;;;2.58;;
29452;SDS011;16424;50.956;5.320;2023-09-19T06:04:17;12.13;;;1.88;;
29452;SDS011;16424;50.956;5.320;2023-09-19T06:06:44;10.52;;;1.83;;
29452;SDS011;16424;50.956;5.320;2023-09-19T06:09:10;13.90;;;2.08;;
29452;SDS011;16424;50.956;5.320;2023-09-19T06:11:35;16.00;;;3.38;;
29452;SDS011;16424;50.956;5.320;2023-09-19T06:14:02;10.50;;;2.10;;
29452;SDS011;16424;50.956;5.320;2023-09-19T06:16:28;7.30;;;1.67;;
29452;SDS011;16424;50.956;5.320;2023-09-19T06:18:54;13.52;;;2.65;;
29452;SDS011;16424;50.956;5.320;2023-09-19T06:21:21;10.10;;;1.90;;
29452;SDS011;16424;50.956;5.320;2023-09-19T06:23:51;10.57;;;2.33;;
29452;SDS011;16424;50.956;5.320;2023-09-19T06:26:18;11.38;;;1.73;;
29452;SDS011;16424;50.956;5.320;2023-09-19T06:28:43;12.25;;;1.85;;
29452;SDS011;16424;50.956;5.320;2023-09-19T06:31:09;7.95;;;2.28;;
29452;SDS011;16424;50.956;5.320;2023-09-19T06:33:38;8.05;;;1.88;;
29452;SDS011;16424;50.956;5.320;2023-09-19T06:36:04;11.07;;;2.17;;
29452;SDS011;16424;50.956;5.320;2023-09-19T06:38:31;14.07;;;2.60;;
29452;SDS011;16424;50.956;5.320;2023-09-19T06:40:59;8.82;;;2.33;;
29452;SDS011;16424;50.956;5.320;2023-09-19T06:43:26;12.82;;;2.03;;
29452;SDS011;16424;50.956;5.320;2023-09-19T06:45:52;13.60;;;2.40;;
29452;SDS011;16424;50.956;5.320;2023-09-19T06:48:19;9.95;;;1.95;;
29452;SDS011;16424;50.956;5.320;2023-09-19T06:50:46;13.48;;;2.58;;
29452;SDS011;16424;50.956;5.320;2023-09-19T06:53:13;11.15;;;2.15;;
29452;SDS011;16424;50.956;5.320;2023-09-19T06:55:39;12.80;;;2.80;;
29452;SDS011;16424;50.956;5.320;2023-09-19T06:58:05;14.32;;;1.92;;
29452;SDS011;16424;50.956;5.320;2023-09-19T07:00:31;9.32;;;1.80;;
29452;SDS011;16424;50.956;5.320;2023-09-19T07:05:33;12.57;;;2.05;;
29452;SDS011;16424;50.956;5.320;2023-09-19T07:08:02;9.40;;;1.90;;
29452;SDS011;16424;50.956;5.320;2023-09-19T07:10:28;8.95;;;1.92;;
29452;SDS011;16424;50.956;5.320;2023-09-19T07:13:02;8.27;;;1.92;;
29452;SDS011;16424;50.956;5.320;2023-09-19T07:15:29;14.10;;;2.33;;
29452;SDS011;16424;50.956;5.320;2023-09-19T07:18:00;7.85;;;2.28;;
29452;SDS011;16424;50.956;5.320;2023-09-19T07:20:26;9.40;;;2.03;;
29452;SDS011;16424;50.956;5.320;2023-09-19T07:22:54;9.57;;;1.60;;
29452;SDS011;16424;50.956;5.320;2023-09-19T07:25:20;11.45;;;1.90;;
29452;SDS011;16424;50.956;5.320;2023-09-19T07:27:46;9.40;;;1.88;;
29452;SDS011;16424;50.956;5.320;2023-09-19T07:30:12;10.77;;;2.42;;
29452;SDS011;16424;50.956;5.320;2023-09-19T07:32:38;9.73;;;2.17;;
29452;SDS011;16424;50.956;5.320;2023-09-19T07:35:05;7.47;;;1.60;;
29452;SDS011;16424;50.956;5.320;2023-09-19T07:37:32;17.95;;;2.28;;
29452;SDS011;16424;50.956;5.320;2023-09-19T07:40:01;12.32;;;2.08;;
29452;SDS011;16424;50.956;5.320;2023-09-19T07:42:32;10.10;;;1.90;;
29452;SDS011;16424;50.956;5.320;2023-09-19T07:45:00;11.98;;;2.88;;
29452;SDS011;16424;50.956;5.320;2023-09-19T07:47:26;8.48;;;2.22;;
29452;SDS011;16424;50.956;5.320;2023-09-19T07:49:52;12.82;;;2.40;;
29452;SDS011;16424;50.956;5.320;2023-09-19T07:52:18;10.98;;;1.67;;
29452;SDS011;16424;50.956;5.320;2023-09-19T07:54:44;12.18;;;2.47;;
29452;SDS011;16424;50.956;5.320;2023-09-19T07:57:10;4.50;;;1.50;;
29452;SDS011;16424;50.956;5.320;2023-09-19T07:59:36;6.18;;;1.70;;
29452;SDS011;16424;50.956;5.320;2023-09-19T08:02:04;9.68;;;1.77;;
29452;SDS011;16424;50.956;5.320;2023-09-19T08:04:30;9.63;;;1.60;;
29452;SDS011;16424;50.956;5.320;2023-09-19T08:06:57;13.25;;;1.95;;
29452;SDS011;16424;50.956;5.320;2023-09-19T08:09:25;6.05;;;1.52;;
29452;SDS011;16424;50.956;5.320;2023-09-19T08:11:52;10.13;;;2.25;;
29452;SDS011;16424;50.956;5.320;2023-09-19T08:14:18;9.40;;;1.67;;
29452;SDS011;16424;50.956;5.320;2023-09-19T08:16:44;7.78;;;1.60;;
29452;SDS011;16424;50.956;5.320;2023-09-19T08:19:10;9.60;;;2.10;;
29452;SDS011;16424;50.956;5.320;2023-09-19T08:21:36;8.02;;;1.77;;
29452;SDS011;16424;50.956;5.320;2023-09-19T08:24:01;8.10;;;1.88;;
29452;SDS011;16424;50.956;5.320;2023-09-19T08:26:29;8.40;;;2.60;;
29452;SDS011;16424;50.956;5.320;2023-09-19T08:28:55;11.77;;;2.13;;
29452;SDS011;16424;50.956;5.320;2023-09-19T08:31:21;8.57;;;1.75;;
29452;SDS011;16424;50.956;5.320;2023-09-19T08:33:48;7.45;;;2.05;;
29452;SDS011;16424;50.956;5.320;2023-09-19T08:36:16;7.55;;;2.38;;
29452;SDS011;16424;50.956;5.320;2023-09-19T08:38:42;12.15;;;3.20;;
29452;SDS011;16424;50.956;5.320;2023-09-19T08:41:07;9.95;;;1.90;;
29452;SDS011;16424;50.956;5.320;2023-09-19T08:43:34;9.27;;;1.75;;
29452;SDS011;16424;50.956;5.320;2023-09-19T08:46:18;7.07;;;1.88;;
29452;SDS011;16424;50.956;5.320;2023-09-19T08:48:46;5.30;;;1.83;;
29452;SDS011;16424;50.956;5.320;2023-09-19T08:59:38;6.15;;;1.58;;
29452;SDS011;16424;50.956;5.320;2023-09-19T09:02:15;7.90;;;1.50;;
29452;SDS011;16424;50.956;5.320;2023-09-19T09:04:44;8.35;;;1.90;;
29452;SDS011;16424;50.956;5.320;2023-09-19T09:07:12;11.77;;;2.08;;
29452;SDS011;16424;50.956;5.320;2023-09-19T09:09:39;9.65;;;1.58;;
29452;SDS011;16424;50.956;5.320;2023-09-19T09:12:10;8.30;;;2.28;;
29452;SDS011;16424;50.956;5.320;2023-09-19T09:14:38;10.65;;;2.10;;
29452;SDS011;16424;50.956;5.320;2023-09-19T09:17:17;14.73;;;2.13;;
29452;SDS011;16424;50.956;5.320;2023-09-19T09:19:46;9.45;;;2.53;;
29452;SDS011;16424;50.956;5.320;2023-09-19T09:22:12;6.82;;;1.27;;
29452;SDS011;16424;50.956;5.320;2023-09-19T09:24:50;9.68;;;1.85;;
29452;SDS011;16424;50.956;5.320;2023-09-19T09:27:23;11.32;;;2.05;;
29452;SDS011;16424;50.956;5.320;2023-09-19T09:29:49;12.00;;;2.20;;
29452;SDS011;16424;50.956;5.320;2023-09-19T09:32:16;14.48;;;2.40;;
29452;SDS011;16424;50.956;5.320;2023-09-19T09:34:45;9.82;;;1.52;;
29452;SDS011;16424;50.956;5.320;2023-09-19T09:37:19;13.23;;;3.00;;
29452;SDS011;16424;50.956;5.320;2023-09-19T09:39:50;9.95;;;1.95;;
29452;SDS011;16424;50.956;5.320;2023-09-19T09:42:35;7.53;;;1.35;;
29452;SDS011;16424;50.956;5.320;2023-09-19T09:48:02;10.85;;;2.20;;
29452;SDS011;16424;50.956;5.320;2023-09-19T09:50:35;8.13;;;1.70;;
29452;SDS011;16424;50.956;5.320;2023-09-19T09:58:38;5.63;;;1.50;;
29452;SDS011;16424;50.956;5.320;2023-09-19T10:01:15;8.70;;;2.28;;
29452;SDS011;16424;50.956;5.320;2023-09-19T10:03:42;12.32;;;1.80;;
29452;SDS011;16424;50.956;5.320;2023-09-19T10:08:59;10.25;;;1.70;;
29452;SDS011;16424;50.956;5.320;2023-09-19T10:12:00;11.63;;;2.10;;
29452;SDS011;16424;50.956;5.320;2023-09-19T10:14:35;11.55;;;1.95;;
29452;SDS011;16424;50.956;5.320;2023-09-19T10:17:04;14.25;;;2.17;;
29452;SDS011;16424;50.956;5.320;2023-09-19T10:19:37;13.40;;;2.38;;
29452;SDS011;16424;50.956;5.320;2023-09-19T10:22:11;6.15;;;1.33;;
29452;SDS011;16424;50.956;5.320;2023-09-19T10:24:45;13.70;;;3.03;;
29452;SDS011;16424;50.956;5.320;2023-09-19T10:27:12;8.05;;;1.50;;
29452;SDS011;16424;50.956;5.320;2023-09-19T10:29:42;10.25;;;1.73;;
29452;SDS011;16424;50.956;5.320;2023-09-19T10:32:12;7.97;;;1.63;;
29452;SDS011;16424;50.956;5.320;2023-09-19T10:34:44;7.13;;;1.85;;
29452;SDS011;16424;50.956;5.320;2023-09-19T10:37:15;6.72;;;1.70;;
29452;SDS011;16424;50.956;5.320;2023-09-19T10:39:51;8.25;;;1.73;;
29452;SDS011;16424;50.956;5.320;2023-09-19T10:42:18;7.72;;;2.15;;
29452;SDS011;16424;50.956;5.320;2023-09-19T10:44:45;12.73;;;2.05;;
29452;SDS011;16424;50.956;5.320;2023-09-19T10:47:14;12.48;;;1.70;;
29452;SDS011;16424;50.956;5.320;2023-09-19T10:49:44;5.45;;;1.55;;
29452;SDS011;16424;50.956;5.320;2023-09-19T10:52:15;11.43;;;1.77;;
29452;SDS011;16424;50.956;5.320;2023-09-19T10:54:46;11.73;;;2.20;;
29452;SDS011;16424;50.956;5.320;2023-09-19T10:57:23;7.60;;;1.33;;
29452;SDS011;16424;50.956;5.320;2023-09-19T11:00:05;9.18;;;1.42;;
29452;SDS011;16424;50.956;5.320;2023-09-19T11:05:36;7.32;;;1.30;;
29452;SDS011;16424;50.956;5.320;2023-09-19T11:08:09;8.25;;;1.73;;
29452;SDS011;16424;50.956;5.320;2023-09-19T11:10:44;7.75;;;1.75;;
29452;SDS011;16424;50.956;5.320;2023-09-19T11:13:23;7.95;;;1.42;;
29452;SDS011;16424;50.956;5.320;2023-09-19T11:26:47;6.45;;;1.25;;
29452;SDS011;16424;50.956;5.320;2023-09-19T11:29:28;4.65;;;1.45;;
29452;SDS011;16424;50.956;5.320;2023-09-19T11:31:56;8.23;;;1.30;;
29452;SDS011;16424;50.956;5.320;2023-09-19T11:37:02;4.97;;;1.40;;
29452;SDS011;16424;50.956;5.320;2023-09-19T11:40:07;11.27;;;1.67;;
29452;SDS011;16424;50.956;5.320;2023-09-19T11:42:45;7.72;;;1.23;;
29452;SDS011;16424;50.956;5.320;2023-09-19T11:48:12;6.10;;;1.00;;
29452;SDS011;16424;50.956;5.320;2023-09-19T11:50:42;4.28;;;1.00;;
29452;SDS011;16424;50.956;5.320;2023-09-19T11:53:09;5.03;;;1.33;;
29452;SDS011;16424;50.956;5.320;2023-09-19T11:55:39;4.85;;;1.33;;
29452;SDS011;16424;50.956;5.320;2023-09-19T11:58:08;3.58;;;0.70;;
29452;SDS011;16424;50.956;5.320;2023-09-19T12:00:37;7.35;;;1.65;;
29452;SDS011;16424;50.956;5.320;2023-09-19T12:03:08;4.05;;;1.50;;
29452;SDS011;16424;50.956;5.320;2023-09-19T12:05:36;3.95;;;0.98;;
29452;SDS011;16424;50.956;5.320;2023-09-19T12:08:02;8.77;;;1.10;;
29452;SDS011;16424;50.956;5.320;2023-09-19T12:10:32;4.93;;;0.85;;
29452;SDS011;16424;50.956;5.320;2023-09-19T12:12:58;4.25;;;1.00;;
29452;SDS011;16424;50.956;5.320;2023-09-19T12:15:27;3.60;;;1.00;;
29452;SDS011;16424;50.956;5.320;2023-09-19T12:17:59;3.78;;;0.98;;
29452;SDS011;16424;50.956;5.320;2023-09-19T12:20:25;6.25;;;0.80;;
29452;SDS011;16424;50.956;5.320;2023-09-19T12:23:14;4.07;;;0.88;;
29452;SDS011;16424;50.956;5.320;2023-09-19T12:25:41;3.05;;;0.63;;
29452;SDS011;16424;50.956;5.320;2023-09-19T12:28:12;6.60;;;0.80;;
29452;SDS011;16424;50.956;5.320;2023-09-19T12:30:39;2.95;;;0.75;;
29452;SDS011;16424;50.956;5.320;2023-09-19T12:33:19;3.35;;;0.75;;
29452;SDS011;16424;50.956;5.320;2023-09-19T12:35:46;3.78;;;0.65;;
29452;SDS011;16424;50.956;5.320;2023-09-19T12:38:22;5.28;;;0.75;;
29452;SDS011;16424;50.956;5.320;2023-09-19T12:40:53;4.07;;;0.75;;
29452;SDS011;16424;50.956;5.320;2023-09-19T12:43:21;6.95;;;1.40;;
29452;SDS011;16424;50.956;5.320;2023-09-19T12:45:48;6.75;;;0.50;;
29452;SDS011;16424;50.956;5.320;2023-09-19T12:48:19;4.28;;;0.82;;
29452;SDS011;16424;50.956;5.320;2023-09-19T12:51:20;1.70;;;0.60;;
29452;SDS011;16424;50.956;5.320;2023-09-19T12:53:42;2.75;;;0.75;;
29452;SDS011;16424;50.956;5.320;2023-09-19T12:56:10;2.80;;;0.60;;
29452;SDS011;16424;50.956;5.320;2023-09-19T13:01:19;4.60;;;0.60;;
29452;SDS011;16424;50.956;5.320;2023-09-19T13:03:45;2.45;;;0.68;;
29452;SDS011;16424;50.956;5.320;2023-09-19T13:06:11;3.88;;;1.10;;
29452;SDS011;16424;50.956;5.320;2023-09-19T13:08:38;3.13;;;0.70;;
29452;SDS011;16424;50.956;5.320;2023-09-19T13:13:41;4.22;;;0.47;;
29452;SDS011;16424;50.956;5.320;2023-09-19T13:16:10;5.35;;;0.95;;
29452;SDS011;16424;50.956;5.320;2023-09-19T13:18:49;3.85;;;0.73;;
29452;SDS011;16424;50.956;5.320;2023-09-19T13:21:28;3.10;;;0.70;;
29452;SDS011;16424;50.956;5.320;2023-09-19T13:24:17;4.22;;;0.60;;
29452;SDS011;16424;50.956;5.320;2023-09-19T13:26:44;5.65;;;0.80;;
29452;SDS011;16424;50.956;5.320;2023-09-19T13:29:10;3.22;;;0.70;;
29452;SDS011;16424;50.956;5.320;2023-09-19T13:31:36;3.17;;;0.82;;
29452;SDS011;16424;50.956;5.320;2023-09-19T13:34:06;4.82;;;0.75;;
29452;SDS011;16424;50.956;5.320;2023-09-19T13:36:32;3.03;;;0.77;;
29452;SDS011;16424;50.956;5.320;2023-09-19T13:38:58;5.88;;;0.90;;
29452;SDS011;16424;50.956;5.320;2023-09-19T13:41:25;2.72;;;0.70;;
29452;SDS011;16424;50.956;5.320;2023-09-19T13:43:51;6.60;;;1.00;;
29452;SDS011;16424;50.956;5.320;2023-09-19T13:46:17;4.70;;;1.02;;
29452;SDS011;16424;50.956;5.320;2023-09-19T13:48:50;3.55;;;0.70;;
29452;SDS011;16424;50.956;5.320;2023-09-19T13:51:19;3.25;;;0.90;;
29452;SDS011;16424;50.956;5.320;2023-09-19T13:53:48;4.18;;;0.82;;
29452;SDS011;16424;50.956;5.320;2023-09-19T13:56:15;4.57;;;0.77;;
29452;SDS011;16424;50.956;5.320;2023-09-19T13:58:41;3.10;;;0.60;;
29452;SDS011;16424;50.956;5.320;2023-09-19T14:01:07;3.40;;;0.70;;
29452;SDS011;16424;50.956;5.320;2023-09-19T14:03:37;4.05;;;1.13;;
29452;SDS011;16424;50.956;5.320;2023-09-19T14:06:04;2.85;;;0.60;;
29452;SDS011;16424;50.956;5.320;2023-09-19T14:08:30;7.32;;;1.02;;
29452;SDS011;16424;50.956;5.320;2023-09-19T14:10:55;6.20;;;1.00;;
29452;SDS011;16424;50.956;5.320;2023-09-19T14:13:21;3.08;;;0.75;;
29452;SDS011;16424;50.956;5.320;2023-09-19T14:15:47;3.72;;;0.82;;
29452;SDS011;16424;50.956;5.320;2023-09-19T14:18:12;8.43;;;1.10;;
29452;SDS011;16424;50.956;5.320;2023-09-19T14:20:38;6.28;;;1.00;;
29452;SDS011;16424;50.956;5.320;2023-09-19T14:23:06;2.80;;;1.10;;
29452;SDS011;16424;50.956;5.320;2023-09-19T14:25:35;2.30;;;0.70;;
29452;SDS011;16424;50.956;5.320;2023-09-19T14:28:01;3.30;;;1.20;;
29452;SDS011;16424;50.956;5.320;2023-09-19T14:30:27;7.55;;;0.90;;
29452;SDS011;16424;50.956;5.320;2023-09-19T14:32:53;2.63;;;1.10;;
29452;SDS011;16424;50.956;5.320;2023-09-19T14:35:19;2.08;;;0.88;;
29452;SDS011;16424;50.956;5.320;2023-09-19T14:37:44;7.15;;;0.82;;
29452;SDS011;16424;50.956;5.320;2023-09-19T14:40:10;3.22;;;0.80;;
29452;SDS011;16424;50.956;5.320;2023-09-19T14:42:38;5.50;;;1.00;;
29452;SDS011;16424;50.956;5.320;2023-09-19T14:45:04;6.57;;;0.70;;
29452;SDS011;16424;50.956;5.320;2023-09-19T14:47:31;3.92;;;0.60;;
29452;SDS011;16424;50.956;5.320;2023-09-19T14:49:59;4.85;;;0.93;;
29452;SDS011;16424;50.956;5.320;2023-09-19T14:52:31;2.40;;;0.60;;
29452;SDS011;16424;50.956;5.320;2023-09-19T14:54:59;5.18;;;0.88;;
29452;SDS011;16424;50.956;5.320;2023-09-19T14:57:25;7.82;;;0.98;;
29452;SDS011;16424;50.956;5.320;2023-09-19T14:59:51;4.13;;;0.70;;
29452;SDS011;16424;50.956;5.320;2023-09-19T15:02:17;3.95;;;0.95;;
29452;SDS011;16424;50.956;5.320;2023-09-19T15:04:43;4.65;;;0.93;;
29452;SDS011;16424;50.956;5.320;2023-09-19T15:07:09;6.25;;;0.73;;
29452;SDS011;16424;50.956;5.320;2023-09-19T15:09:35;3.72;;;0.70;;
29452;SDS011;16424;50.956;5.320;2023-09-19T15:12:01;5.88;;;0.90;;
29452;SDS011;16424;50.956;5.320;2023-09-19T15:14:27;1.92;;;0.60;;
29452;SDS011;16424;50.956;5.320;2023-09-19T15:16:54;3.42;;;0.65;;
29452;SDS011;16424;50.956;5.320;2023-09-19T15:19:20;5.72;;;0.80;;
29452;SDS011;16424;50.956;5.320;2023-09-19T15:21:47;2.42;;;1.20;;
29452;SDS011;16424;50.956;5.320;2023-09-19T15:24:13;6.30;;;1.95;;
29452;SDS011;16424;50.956;5.320;2023-09-19T15:26:39;5.07;;;1.48;;
29452;SDS011;16424;50.956;5.320;2023-09-19T15:29:08;3.25;;;0.95;;
29452;SDS011;16424;50.956;5.320;2023-09-19T15:31:35;3.00;;;0.93;;
29452;SDS011;16424;50.956;5.320;2023-09-19T15:34:01;3.83;;;0.90;;
29452;SDS011;16424;50.956;5.320;2023-09-19T15:36:27;4.70;;;1.02;;
29452;SDS011;16424;50.956;5.320;2023-09-19T15:41:31;3.90;;;1.20;;
29452;SDS011;16424;50.956;5.320;2023-09-19T15:43:57;2.90;;;0.90;;
29452;SDS011;16424;50.956;5.320;2023-09-19T15:46:26;4.75;;;1.20;;
29452;SDS011;16424;50.956;5.320;2023-09-19T15:48:53;5.90;;;1.20;;
29452;SDS011;16424;50.956;5.320;2023-09-19T15:51:18;4.50;;;1.00;;
29452;SDS011;16424;50.956;5.320;2023-09-19T15:53:45;7.68;;;1.15;;
29452;SDS011;16424;50.956;5.320;2023-09-19T15:56:18;3.10;;;0.93;;
29452;SDS011;16424;50.956;5.320;2023-09-19T15:58:52;5.00;;;0.80;;